createdAt,value
2019-02-15T21:47:26.452Z,10.57
2019-02-15T21:49:58.113Z,9.63
2019-02-15T21:52:29.634Z,13.20
2019-02-15T21:55:02.419Z,9.83
2019-02-15T21:57:34.012Z,11.80
2019-02-15T22:00:06.314Z,9.50
2019-02-15T22:02:39.604Z,12.17
2019-02-15T22:05:11.089Z,10.80
2019-02-15T22:07:42.644Z,9.17
2019-02-15T22:10:14.174Z,13.67
2019-02-15T22:12:45.729Z,14.07
2019-02-15T22:15:17.294Z,14.23
2019-02-15T22:17:48.825Z,14.00
2019-02-15T22:20:26.677Z,13.23
2019-02-15T22:22:54.028Z,14.40
2019-02-15T22:25:25.822Z,14.67
2019-02-15T22:27:57.461Z,16.67
2019-02-15T22:30:29.195Z,13.73
2019-02-15T22:33:02.223Z,12.77
2019-02-15T22:35:34.016Z,12.47
2019-02-15T22:38:05.482Z,14.90
2019-02-15T22:40:39.322Z,11.93
2019-02-15T22:43:17.486Z,15.40
2019-02-15T22:45:48.884Z,14.90
2019-02-15T22:48:20.770Z,15.73
2019-02-15T22:50:52.328Z,14.60
2019-02-15T22:53:23.821Z,18.47
2019-02-15T22:55:55.504Z,14.23
2019-02-15T22:58:27.049Z,13.87
2019-02-15T23:01:08.548Z,15.73
2019-02-15T23:03:40.310Z,15.93
2019-02-15T23:06:11.631Z,16.03
2019-02-15T23:08:43.306Z,13.80
2019-02-15T23:11:15.756Z,16.00
2019-02-15T23:13:47.328Z,15.93
2019-02-15T23:16:18.687Z,17.37
2019-02-15T23:18:50.255Z,19.97
2019-02-15T23:21:22.154Z,15.87
2019-02-15T23:23:53.608Z,14.57
2019-02-15T23:26:25.096Z,15.83
2019-02-15T23:28:56.596Z,19.63
2019-02-15T23:31:28.384Z,15.80
2019-02-15T23:33:59.948Z,15.20
2019-02-15T23:36:31.564Z,16.57
2019-02-15T23:39:03.055Z,17.27
2019-02-15T23:41:34.581Z,18.60
2019-02-15T23:44:06.022Z,17.67
2019-02-15T23:46:37.470Z,16.53
2019-02-15T23:49:09.214Z,15.40
2019-02-15T23:51:42.466Z,16.23
2019-02-15T23:54:13.765Z,17.03
2019-02-15T23:56:45.268Z,16.97
2019-02-15T23:59:16.884Z,15.60
